createdAt,value
2019-03-22T00:00:27.403Z,94.37
2019-03-22T00:02:56.142Z,94.56
2019-03-22T00:05:24.854Z,94.71
2019-03-22T00:07:53.513Z,94.46
2019-03-22T00:10:22.157Z,94.79
2019-03-22T00:12:50.967Z,94.99
2019-03-22T00:15:19.594Z,94.92
2019-03-22T00:17:48.252Z,95.74
2019-03-22T00:20:17.024Z,95.86
2019-03-22T00:22:45.652Z,95.98
2019-03-22T00:25:14.444Z,96.16
2019-03-22T00:27:43.189Z,96.04
2019-03-22T00:30:12.124Z,95.87
2019-03-22T00:32:40.758Z,95.87
2019-03-22T00:35:09.433Z,96.44
2019-03-22T00:37:38.128Z,96.45
2019-03-22T00:40:07.831Z,96.34
2019-03-22T00:42:36.550Z,96.53
2019-03-22T00:45:09.580Z,96.62
2019-03-22T00:47:38.321Z,96.57
2019-03-22T00:50:09.391Z,96.50
2019-03-22T00:52:38.055Z,96.11
2019-03-22T00:55:07.978Z,96.21
2019-03-22T00:57:36.634Z,96.31
2019-03-22T01:00:17.401Z,95.94
2019-03-22T01:02:46.461Z,95.92
2019-03-22T01:05:16.250Z,96.42
2019-03-22T01:07:44.882Z,96.57
2019-03-22T01:10:15.255Z,96.55
2019-03-22T01:12:43.944Z,96.40
2019-03-22T01:15:14.257Z,96.71
2019-03-22T01:17:43.496Z,96.81
2019-03-22T01:20:13.131Z,96.86
2019-03-22T01:22:42.812Z,97.01
2019-03-22T01:25:12.068Z,97.02
2019-03-22T01:27:41.499Z,97.16
2019-03-22T01:30:13.603Z,97.43
2019-03-22T01:32:42.229Z,97.27
2019-03-22T01:35:12.358Z,97.07
2019-03-22T01:37:41.198Z,97.20
2019-03-22T01:40:12.576Z,97.43
2019-03-22T01:42:41.194Z,97.37
2019-03-22T01:45:15.761Z,97.31
2019-03-22T01:47:44.436Z,97.29
2019-03-22T01:50:18.658Z,97.14
2019-03-22T01:52:47.410Z,97.00
2019-03-22T01:55:16.139Z,96.88
2019-03-22T01:57:52.958Z,96.92
2019-03-22T02:00:19.650Z,97.05
2019-03-22T02:02:48.503Z,97.28
2019-03-22T02:05:17.197Z,97.33
2019-03-22T02:07:45.890Z,97.42
2019-03-22T02:10:15.710Z,97.37
2019-03-22T02:12:44.332Z,97.31
2019-03-22T02:15:16.058Z,97.23
2019-03-22T02:17:45.200Z,96.91
2019-03-22T02:20:15.824Z,97.02
2019-03-22T02:22:44.459Z,97.72
2019-03-22T02:25:13.863Z,97.76
2019-03-22T02:27:43.983Z,98.29
2019-03-22T02:30:17.858Z,98.48
2019-03-22T02:32:46.497Z,98.55
2019-03-22T02:35:27.549Z,98.65
2019-03-22T02:37:45.703Z,98.68
2019-03-22T02:40:14.581Z,98.76
2019-03-22T02:42:43.467Z,99.14
2019-03-22T02:45:14.930Z,99.31
2019-03-22T02:47:44.014Z,99.23
2019-03-22T02:50:19.772Z,99.06
2019-03-22T02:52:45.498Z,98.73
2019-03-22T02:55:14.644Z,98.62
2019-03-22T02:57:43.394Z,98.68
2019-03-22T03:00:18.998Z,98.63
2019-03-22T03:02:47.712Z,98.70
2019-03-22T03:05:17.887Z,98.90
2019-03-22T03:07:46.618Z,98.79
2019-03-22T03:10:17.125Z,98.96
2019-03-22T03:12:46.443Z,99.08
2019-03-22T03:15:21.108Z,99.18
2019-03-22T03:17:49.773Z,99.05
2019-03-22T03:20:20.221Z,99.62
2019-03-22T03:22:49.170Z,99.77
2019-03-22T03:25:18.029Z,99.81
2019-03-22T03:27:46.657Z,99.64
2019-03-22T03:30:21.304Z,99.33
2019-03-22T03:32:49.951Z,99.08
2019-03-22T03:35:18.894Z,99.08
2019-03-22T03:37:47.585Z,99.65
2019-03-22T03:40:19.318Z,99.79
2019-03-22T03:42:48.041Z,100.00
2019-03-22T03:45:36.165Z,100.00
2019-03-22T03:48:07.858Z,100.00
2019-03-22T03:50:36.676Z,100.00
2019-03-22T03:53:18.268Z,100.00
2019-03-22T03:55:48.013Z,99.81
2019-03-22T03:58:16.713Z,99.91
2019-03-22T04:00:45.531Z,99.98
2019-03-22T04:03:14.134Z,100.00
2019-03-22T04:05:42.756Z,100.00
2019-03-22T04:08:11.456Z,100.00
2019-03-22T04:10:40.150Z,100.00
2019-03-22T04:13:08.708Z,100.00
2019-03-22T04:15:37.473Z,100.00
2019-03-22T04:18:06.180Z,100.00
2019-03-22T04:20:34.804Z,100.00
2019-03-22T04:23:03.506Z,100.00
2019-03-22T04:25:32.207Z,100.00
2019-03-22T04:28:00.986Z,100.00
2019-03-22T04:30:29.704Z,100.00
2019-03-22T04:32:58.369Z,100.00
2019-03-22T04:35:27.124Z,100.00
2019-03-22T04:37:55.724Z,100.00
2019-03-22T04:40:29.983Z,100.00
2019-03-22T04:42:59.400Z,100.00
2019-03-22T04:45:31.174Z,100.00
2019-03-22T04:48:05.777Z,100.00
2019-03-22T04:50:37.461Z,100.00
2019-03-22T04:53:09.048Z,100.00
2019-03-22T04:55:40.451Z,100.00
2019-03-22T04:58:12.061Z,100.00
2019-03-22T05:00:42.325Z,100.00
2019-03-22T05:03:12.885Z,100.00
2019-03-22T05:05:43.438Z,100.00
2019-03-22T05:08:12.984Z,100.00
2019-03-22T05:10:41.691Z,100.00
2019-03-22T05:13:13.099Z,100.00
2019-03-22T05:15:44.059Z,100.00
2019-03-22T05:18:12.934Z,100.00
2019-03-22T05:20:44.823Z,100.00
2019-03-22T05:23:15.094Z,100.00
2019-03-22T05:25:45.806Z,100.00
2019-03-22T05:28:15.038Z,100.00
2019-03-22T05:30:54.317Z,100.00
2019-03-22T05:33:22.985Z,100.00
2019-03-22T05:36:05.320Z,100.00
2019-03-22T05:38:33.991Z,100.00
2019-03-22T05:41:02.779Z,100.00
2019-03-22T05:43:31.431Z,100.00
2019-03-22T05:46:01.754Z,100.00
2019-03-22T05:48:30.404Z,100.00
2019-03-22T05:50:59.091Z,100.00
2019-03-22T05:53:27.800Z,100.00
2019-03-22T05:55:56.645Z,100.00
2019-03-22T05:58:25.386Z,100.00
2019-03-22T06:00:54.248Z,100.00
2019-03-22T06:03:22.927Z,100.00
2019-03-22T06:05:51.604Z,100.00
2019-03-22T06:08:20.274Z,100.00
2019-03-22T06:10:48.847Z,100.00
2019-03-22T06:13:17.661Z,100.00
2019-03-22T06:15:46.286Z,100.00
2019-03-22T06:18:14.964Z,100.00
2019-03-22T06:20:43.725Z,100.00
2019-03-22T06:23:12.316Z,100.00
2019-03-22T06:25:41.031Z,100.00
2019-03-22T06:28:09.787Z,100.00
2019-03-22T06:30:38.480Z,100.00
2019-03-22T06:33:07.158Z,100.00
2019-03-22T06:35:35.710Z,100.00
2019-03-22T06:38:04.420Z,100.00
2019-03-22T06:40:33.076Z,100.00
2019-03-22T06:43:01.629Z,100.00
2019-03-22T06:45:30.327Z,100.00
2019-03-22T06:47:58.958Z,100.00
2019-03-22T06:50:27.618Z,100.00
2019-03-22T06:52:57.043Z,100.00
2019-03-22T06:55:26.392Z,100.00
2019-03-22T06:57:55.001Z,100.00
2019-03-22T07:00:23.740Z,100.00
2019-03-22T07:02:52.302Z,100.00
2019-03-22T07:05:21.074Z,100.00
2019-03-22T07:07:49.801Z,100.00
2019-03-22T07:10:18.510Z,100.00
2019-03-22T07:12:47.143Z,100.00
2019-03-22T07:15:15.991Z,100.00
2019-03-22T07:17:44.729Z,100.00
2019-03-22T07:20:14.427Z,100.00
2019-03-22T07:22:43.105Z,100.00
2019-03-22T07:25:11.878Z,100.00
2019-03-22T07:27:40.626Z,100.00
2019-03-22T07:30:18.465Z,100.00
2019-03-22T07:32:42.657Z,100.00
2019-03-22T07:35:11.348Z,100.00
2019-03-22T07:37:40.005Z,100.00
2019-03-22T07:40:10.688Z,100.00
2019-03-22T07:42:39.400Z,99.74
2019-03-22T07:45:10.798Z,99.59
2019-03-22T07:47:39.467Z,99.21
2019-03-22T07:50:13.761Z,98.72
2019-03-22T07:52:42.464Z,98.12
2019-03-22T07:55:11.421Z,98.17
2019-03-22T07:57:40.138Z,98.04
2019-03-22T08:00:12.796Z,97.69
2019-03-22T08:02:41.496Z,97.56
2019-03-22T08:05:10.353Z,97.55
2019-03-22T08:07:39.099Z,97.46
2019-03-22T08:10:09.996Z,96.45
2019-03-22T08:12:38.743Z,94.72
2019-03-22T08:15:09.860Z,94.78
2019-03-22T08:17:38.572Z,95.28
2019-03-22T08:20:09.204Z,95.01
2019-03-22T08:22:38.126Z,94.19
2019-03-22T08:25:07.080Z,93.70
2019-03-22T08:27:35.746Z,93.39
2019-03-22T08:30:05.938Z,92.92
2019-03-22T08:32:34.662Z,91.34
2019-03-22T08:35:03.446Z,90.23
2019-03-22T08:37:32.196Z,90.98
2019-03-22T08:40:01.025Z,91.35
2019-03-22T08:42:29.891Z,90.00
2019-03-22T08:44:58.748Z,89.17
2019-03-22T08:47:33.851Z,88.74
2019-03-22T08:49:58.422Z,88.74
2019-03-22T08:52:27.178Z,88.18
2019-03-22T08:54:55.862Z,86.96
2019-03-22T08:57:25.190Z,85.84
2019-03-22T08:59:54.770Z,82.26
2019-03-22T09:02:23.498Z,80.12
2019-03-22T09:04:52.270Z,78.36
2019-03-22T09:07:20.952Z,79.68
2019-03-22T09:09:49.750Z,75.97
2019-03-22T09:12:18.441Z,77.51
2019-03-22T09:14:47.138Z,78.37
2019-03-22T09:17:16.764Z,76.28
2019-03-22T09:19:45.647Z,76.02
2019-03-22T09:22:14.428Z,77.48
2019-03-22T09:24:43.154Z,79.01
2019-03-22T09:27:11.918Z,75.77
2019-03-22T09:29:40.591Z,71.70
2019-03-22T09:32:09.362Z,70.65
2019-03-22T09:34:38.110Z,69.20
2019-03-22T09:37:08.929Z,73.80
2019-03-22T09:39:37.356Z,69.13
2019-03-22T09:42:06.238Z,72.42
2019-03-22T09:44:43.231Z,71.90
2019-03-22T09:47:05.486Z,72.48
2019-03-22T09:49:34.301Z,73.21
2019-03-22T09:52:03.054Z,72.59
2019-03-22T09:54:31.787Z,69.54
2019-03-22T09:57:00.767Z,70.47
2019-03-22T09:59:29.504Z,67.21
2019-03-22T10:01:58.122Z,70.29
2019-03-22T10:04:26.938Z,68.00
2019-03-22T10:06:55.652Z,68.59
2019-03-22T10:09:24.602Z,67.43
2019-03-22T10:11:54.415Z,66.02
2019-03-22T10:14:44.713Z,65.05
2019-03-22T10:17:13.446Z,65.05
2019-03-22T10:19:42.391Z,65.05
2019-03-22T10:22:11.131Z,63.20
2019-03-22T10:24:39.931Z,61.40
2019-03-22T10:27:08.639Z,62.70
2019-03-22T10:29:37.384Z,63.57
2019-03-22T10:32:06.254Z,64.27
2019-03-22T10:34:35.003Z,63.92
2019-03-22T10:37:03.812Z,63.74
2019-03-22T10:39:32.587Z,63.14
2019-03-22T10:42:01.343Z,63.94
2019-03-22T10:44:30.108Z,63.94
2019-03-22T10:46:58.856Z,60.13
2019-03-22T10:49:27.615Z,62.35
2019-03-22T10:51:58.052Z,62.45
2019-03-22T10:54:26.714Z,61.80
2019-03-22T10:56:55.402Z,60.73
2019-03-22T10:59:24.111Z,61.96
2019-03-22T11:02:03.402Z,60.44
2019-03-22T11:04:23.235Z,61.71
2019-03-22T11:06:52.000Z,59.81
2019-03-22T11:09:20.663Z,63.12
2019-03-22T11:11:49.577Z,59.80
2019-03-22T11:14:18.314Z,59.08
2019-03-22T11:17:00.249Z,58.58
2019-03-22T11:19:29.872Z,59.29
2019-03-22T11:21:58.624Z,59.05
2019-03-22T11:24:27.356Z,60.17
2019-03-22T11:26:55.993Z,60.27
2019-03-22T11:29:24.868Z,56.86
2019-03-22T11:31:55.139Z,57.03
2019-03-22T11:34:24.102Z,56.63
2019-03-22T11:36:52.816Z,54.60
2019-03-22T11:39:21.535Z,54.45
2019-03-22T11:41:50.247Z,54.00
2019-03-22T11:44:18.986Z,55.11
2019-03-22T11:46:47.687Z,52.75
2019-03-22T11:49:16.513Z,52.61
2019-03-22T11:51:45.284Z,53.64
2019-03-22T11:54:13.950Z,48.92
2019-03-22T11:56:42.766Z,53.88
2019-03-22T11:59:11.443Z,48.61
2019-03-22T12:01:40.382Z,51.04
2019-03-22T12:04:09.116Z,47.50
2019-03-22T12:06:37.865Z,51.00
2019-03-22T12:09:09.771Z,51.31
2019-03-22T12:11:38.714Z,49.07
2019-03-22T12:14:07.894Z,49.65
2019-03-22T12:16:37.188Z,47.78
2019-03-22T12:19:06.042Z,46.70
2019-03-22T12:21:34.738Z,46.51
2019-03-22T12:24:03.443Z,45.57
2019-03-22T12:26:32.279Z,46.73
2019-03-22T12:29:00.958Z,47.24
2019-03-22T12:31:29.695Z,46.55
2019-03-22T12:33:58.479Z,46.25
2019-03-22T12:36:27.246Z,44.32
2019-03-22T12:38:56.048Z,43.08
2019-03-22T12:41:25.264Z,43.53
2019-03-22T12:43:54.211Z,45.08
2019-03-22T12:46:22.924Z,44.01
2019-03-22T12:48:51.651Z,43.46
2019-03-22T12:51:20.432Z,42.84
2019-03-22T12:53:49.139Z,46.26
2019-03-22T12:56:17.935Z,42.84
2019-03-22T12:58:46.928Z,44.18
2019-03-22T13:01:15.679Z,47.33
2019-03-22T13:03:44.461Z,43.17
2019-03-22T13:06:13.257Z,44.60
2019-03-22T13:08:42.081Z,44.91
2019-03-22T13:11:10.856Z,44.18
2019-03-22T13:13:52.006Z,43.07
2019-03-22T13:16:37.052Z,44.50
2019-03-22T13:19:21.558Z,42.65
2019-03-22T13:21:51.364Z,41.85
2019-03-22T13:24:34.364Z,40.40
2019-03-22T13:27:15.741Z,41.78
2019-03-22T13:30:00.398Z,40.09
2019-03-22T13:32:39.251Z,39.95
2019-03-22T13:35:20.933Z,41.84
2019-03-22T13:38:03.407Z,39.80
2019-03-22T13:40:45.521Z,38.75
2019-03-22T13:43:29.046Z,38.93
2019-03-22T13:46:14.049Z,38.77
2019-03-22T13:48:55.309Z,38.78
2019-03-22T13:51:37.335Z,39.89
2019-03-22T13:56:59.480Z,38.95
2019-03-22T13:59:40.085Z,35.90
2019-03-22T14:02:23.248Z,36.20
2019-03-22T14:05:04.453Z,39.21
2019-03-22T14:07:47.704Z,38.30
2019-03-22T14:10:46.476Z,38.71
2019-03-22T14:13:30.952Z,38.20
2019-03-22T14:16:08.984Z,37.44
2019-03-22T14:18:50.900Z,37.93
2019-03-22T14:21:36.710Z,38.22
2019-03-22T14:24:12.977Z,37.27
2019-03-22T14:26:41.712Z,37.14
2019-03-22T14:29:10.423Z,38.57
2019-03-22T14:31:39.218Z,40.12
2019-03-22T14:34:07.873Z,37.62
2019-03-22T14:36:36.515Z,37.97
2019-03-22T14:39:08.101Z,38.27
2019-03-22T14:41:36.879Z,36.48
2019-03-22T14:44:06.836Z,39.82
2019-03-22T14:46:35.427Z,39.56
2019-03-22T14:49:04.183Z,37.88
2019-03-22T14:51:32.972Z,39.96
2019-03-22T14:54:01.691Z,37.50
2019-03-22T14:56:30.450Z,36.73
2019-03-22T14:58:59.238Z,38.20
2019-03-22T15:01:28.001Z,39.62
2019-03-22T15:03:56.805Z,37.50
2019-03-22T15:06:25.639Z,39.32
2019-03-22T15:08:54.367Z,40.56
2019-03-22T15:11:23.205Z,42.15
2019-03-22T15:13:53.559Z,39.86
2019-03-22T15:16:40.238Z,38.19
2019-03-22T15:19:10.748Z,39.94
2019-03-22T15:21:49.782Z,37.34
2019-03-22T15:27:25.468Z,38.68
2019-03-22T15:29:55.861Z,41.52
2019-03-22T15:32:42.105Z,39.95
2019-03-22T15:35:15.223Z,40.48
2019-03-22T15:37:54.708Z,41.04
2019-03-22T15:40:23.397Z,41.16
2019-03-22T15:42:52.159Z,42.82
2019-03-22T15:45:20.939Z,42.25
2019-03-22T15:47:49.736Z,41.98
2019-03-22T15:50:18.616Z,40.18
2019-03-22T15:52:47.440Z,40.17
2019-03-22T15:55:16.287Z,41.08
2019-03-22T15:57:45.049Z,39.08
2019-03-22T16:00:19.209Z,40.35
2019-03-22T16:02:47.941Z,41.93
2019-03-22T16:05:18.252Z,39.26
2019-03-22T16:07:47.129Z,39.46
2019-03-22T16:10:16.007Z,38.88
2019-03-22T16:12:44.697Z,39.40
2019-03-22T16:15:15.125Z,40.86
2019-03-22T16:17:43.779Z,40.05
2019-03-22T16:20:15.248Z,41.01
2019-03-22T16:22:43.968Z,42.24
2019-03-22T16:25:12.864Z,42.11
2019-03-22T16:27:41.851Z,40.72
2019-03-22T16:30:13.055Z,41.66
2019-03-22T16:32:41.712Z,44.17
2019-03-22T16:35:10.861Z,44.89
2019-03-22T16:37:39.567Z,45.20
2019-03-22T16:40:10.677Z,45.16
2019-03-22T16:42:39.366Z,45.62
2019-03-22T16:45:10.850Z,45.46
2019-03-22T16:47:39.583Z,45.35
2019-03-22T16:50:24.997Z,46.62
2019-03-22T16:52:53.780Z,47.75
2019-03-22T16:55:24.041Z,48.49
2019-03-22T16:57:53.047Z,46.42
2019-03-22T17:00:21.763Z,48.46
2019-03-22T17:02:50.530Z,47.98
2019-03-22T17:05:19.331Z,48.05
2019-03-22T17:07:47.965Z,49.34
2019-03-22T17:10:16.699Z,50.62
2019-03-22T17:12:45.316Z,51.97
2019-03-22T17:15:14.380Z,52.64
2019-03-22T17:17:43.091Z,49.16
2019-03-22T17:20:11.833Z,48.49
2019-03-22T17:22:40.567Z,49.32
2019-03-22T17:25:09.254Z,52.54
2019-03-22T17:27:37.988Z,55.71
2019-03-22T17:30:08.984Z,55.74
2019-03-22T17:32:37.624Z,58.32
2019-03-22T17:35:09.428Z,57.25
2019-03-22T17:37:38.083Z,59.91
2019-03-22T17:40:08.362Z,60.69
2019-03-22T17:42:38.588Z,59.70
2019-03-22T17:45:13.221Z,60.56
2019-03-22T17:47:42.487Z,62.19
2019-03-22T17:50:15.278Z,61.96
2019-03-22T17:52:44.520Z,60.58
2019-03-22T17:55:14.207Z,60.35
2019-03-22T17:57:42.888Z,59.53
2019-03-22T18:00:27.125Z,59.96
2019-03-22T18:02:55.979Z,58.29
2019-03-22T18:05:24.693Z,59.29
2019-03-22T18:07:55.487Z,60.58
2019-03-22T18:10:24.547Z,61.24
2019-03-22T18:12:53.242Z,63.50
2019-03-22T18:15:22.071Z,63.52
2019-03-22T18:17:50.753Z,64.76
2019-03-22T18:20:19.390Z,64.10
2019-03-22T18:22:50.552Z,64.77
2019-03-22T18:25:19.203Z,64.49
2019-03-22T18:27:47.826Z,66.11
2019-03-22T18:30:17.354Z,65.62
2019-03-22T18:32:46.429Z,66.58
2019-03-22T18:35:15.219Z,66.36
2019-03-22T18:37:45.041Z,67.30
2019-03-22T18:40:15.456Z,67.45
2019-03-22T18:42:44.081Z,66.97
2019-03-22T18:45:16.300Z,67.92
2019-03-22T18:47:51.796Z,68.14
2019-03-22T18:50:20.520Z,68.60
2019-03-22T18:52:50.486Z,68.96
2019-03-22T18:55:19.014Z,69.54
2019-03-22T18:57:48.157Z,69.70
2019-03-22T19:00:18.652Z,70.23
2019-03-22T19:02:48.295Z,70.48
2019-03-22T19:05:20.319Z,71.23
2019-03-22T19:07:50.862Z,71.65
2019-03-22T19:10:19.838Z,72.28
2019-03-22T19:12:49.083Z,71.87
2019-03-22T19:15:18.234Z,71.86
2019-03-22T19:17:47.885Z,72.49
2019-03-22T19:20:17.457Z,71.72
2019-03-22T19:22:46.216Z,71.81
2019-03-22T19:25:14.852Z,72.20
2019-03-22T19:27:43.482Z,71.79
2019-03-22T19:30:14.758Z,72.76
2019-03-22T19:32:43.733Z,73.69
2019-03-22T19:35:13.718Z,73.96
2019-03-22T19:37:44.910Z,73.33
2019-03-22T19:40:15.743Z,73.94
2019-03-22T19:42:47.414Z,73.17
2019-03-22T19:45:16.843Z,73.06
2019-03-22T19:47:46.464Z,72.65
2019-03-22T19:50:16.907Z,72.75
2019-03-22T19:52:45.814Z,74.11
2019-03-22T19:55:14.647Z,74.80
2019-03-22T19:57:43.371Z,74.64
2019-03-22T20:00:20.099Z,74.86
2019-03-22T20:02:49.387Z,74.41
2019-03-22T20:05:34.798Z,74.35
2019-03-22T20:08:03.924Z,74.31
2019-03-22T20:10:33.301Z,74.75
2019-03-22T20:13:02.835Z,74.90
2019-03-22T20:15:32.130Z,75.04
2019-03-22T20:18:00.980Z,75.74
2019-03-22T20:20:30.171Z,76.29
2019-03-22T20:22:58.931Z,76.66
2019-03-22T20:25:27.634Z,77.10
2019-03-22T20:27:56.346Z,77.59
2019-03-22T20:30:25.115Z,77.46
2019-03-22T20:32:53.865Z,77.38
2019-03-22T20:35:22.585Z,78.01
2019-03-22T20:37:51.292Z,78.05
2019-03-22T20:40:20.608Z,78.00
2019-03-22T20:42:49.305Z,77.80
2019-03-22T20:45:24.010Z,77.54
2019-03-22T20:47:48.444Z,77.41
2019-03-22T20:50:17.218Z,76.84
2019-03-22T20:52:45.923Z,77.31
2019-03-22T20:55:14.569Z,77.42
2019-03-22T20:57:43.340Z,77.70
2019-03-22T21:00:14.378Z,78.07
2019-03-22T21:02:43.080Z,78.26
2019-03-22T21:05:12.042Z,78.29
2019-03-22T21:07:40.768Z,78.15
2019-03-22T21:10:10.474Z,78.17
2019-03-22T21:12:39.234Z,78.05
2019-03-22T21:15:23.551Z,77.81
2019-03-22T21:17:43.063Z,77.06
2019-03-22T21:20:12.558Z,76.55
2019-03-22T21:22:41.289Z,75.93
2019-03-22T21:25:12.077Z,75.72
2019-03-22T21:27:40.737Z,75.79
2019-03-22T21:30:12.155Z,75.71
2019-03-22T21:32:45.318Z,75.69
2019-03-22T21:35:21.939Z,76.23
2019-03-22T21:37:41.831Z,76.23
2019-03-22T21:40:12.354Z,76.39
2019-03-22T21:42:41.223Z,76.70
2019-03-22T21:45:11.874Z,76.83
2019-03-22T21:47:40.509Z,76.74
2019-03-22T21:50:10.418Z,76.60
2019-03-22T21:52:39.236Z,76.57
2019-03-22T21:55:09.291Z,76.12
2019-03-22T21:57:38.014Z,75.97
2019-03-22T22:00:09.941Z,75.88
2019-03-22T22:02:39.411Z,75.84
2019-03-22T22:05:08.475Z,76.33
2019-03-22T22:07:40.673Z,76.46
2019-03-22T22:10:10.925Z,76.64
2019-03-22T22:12:39.644Z,76.65
2019-03-22T22:15:12.377Z,76.59
2019-03-22T22:17:44.818Z,76.55
2019-03-22T22:20:14.044Z,76.13
2019-03-22T22:22:43.678Z,75.50
2019-03-22T22:25:12.590Z,75.35
2019-03-22T22:27:41.251Z,75.28
2019-03-22T22:30:12.408Z,75.06
2019-03-22T22:32:41.245Z,75.22
2019-03-22T22:35:10.088Z,75.36
2019-03-22T22:37:38.788Z,75.78
2019-03-22T22:40:09.328Z,76.23
2019-03-22T22:42:37.883Z,76.86
2019-03-22T22:45:09.454Z,77.38
2019-03-22T22:47:38.186Z,77.64
2019-03-22T22:50:09.227Z,78.58
2019-03-22T22:52:37.991Z,79.32
2019-03-22T22:55:08.092Z,80.20
2019-03-22T22:57:36.718Z,80.81
2019-03-22T23:00:14.594Z,81.48
2019-03-22T23:02:45.058Z,82.26
2019-03-22T23:05:13.680Z,82.94
2019-03-22T23:07:42.505Z,83.45
2019-03-22T23:10:12.743Z,83.87
2019-03-22T23:12:43.204Z,84.81
2019-03-22T23:15:11.990Z,85.82
2019-03-22T23:17:40.703Z,86.09
2019-03-22T23:20:11.526Z,86.41
2019-03-22T23:22:40.148Z,87.27
2019-03-22T23:25:09.718Z,88.74
2019-03-22T23:27:38.582Z,89.66
2019-03-22T23:30:09.725Z,90.86
2019-03-22T23:32:38.428Z,90.79
2019-03-22T23:35:07.497Z,90.37
2019-03-22T23:37:36.367Z,90.59
2019-03-22T23:40:07.767Z,91.07
2019-03-22T23:42:36.588Z,91.07
2019-03-22T23:45:07.734Z,90.93
2019-03-22T23:47:36.503Z,91.01
2019-03-22T23:50:08.794Z,91.39
2019-03-22T23:52:37.659Z,91.44
2019-03-22T23:55:07.620Z,91.43
2019-03-22T23:57:36.446Z,91.20
